< < Back
Terminal Aerodrome Forecast


Current Version              Previous Versions:   1  2  3  4  5  6  7  8  9  

Terminal Aerodrome Forecast

634
FTAK31 PAJN 291744
TAFAHN
TAF
PAHN 291744Z 2918/3018 10008KT P6SM -RA SCT008 OVC025
      TEMPO 2918/2921 -RA BKN008
     FM292100 12012KT P6SM -SHRA SCT025 OVC050
      TEMPO 2921/2924 BKN025
     FM300600 09006KT P6SM VCSH SCT020 OVC050
      AMD LTD TO CLD VIS AND WIND=

Latest METAR

084
SAUS70 KWBC 291954
MTRAHN
METAR KAHN 291951Z VRB04KT 10SM FEW050 36/21 A2994 RMK AO2 SLP130
T03560206


USA.gov is the U.S. government's official web portal to all federal, state and local government web resources and services.